createdAt,value
2023-01-29T00:02:16.444Z,40.30
2023-01-29T00:04:44.585Z,38.35
2023-01-29T00:07:12.362Z,38.13
2023-01-29T00:09:40.316Z,39.30
2023-01-29T00:12:11.101Z,37.92
2023-01-29T00:14:38.594Z,45.60
2023-01-29T00:17:06.188Z,40.25
2023-01-29T00:19:33.867Z,36.67
2023-01-29T00:22:01.346Z,39.67
2023-01-29T00:24:28.948Z,39.65
2023-01-29T00:26:56.517Z,40.10
2023-01-29T00:29:24.036Z,38.05
2023-01-29T00:31:51.608Z,41.97
2023-01-29T00:34:19.303Z,38.58
2023-01-29T00:36:46.766Z,36.33
2023-01-29T00:39:14.279Z,38.35
2023-01-29T00:42:00.018Z,40.08
2023-01-29T00:44:45.939Z,38.53
2023-01-29T00:47:42.613Z,34.58
2023-01-29T00:50:11.972Z,37.20
2023-01-29T00:52:41.122Z,34.67
2023-01-29T00:55:11.137Z,35.85
2023-01-29T00:57:38.945Z,37.63
2023-01-29T01:00:09.804Z,38.45
2023-01-29T01:02:55.618Z,44.05
2023-01-29T01:05:23.615Z,41.78
2023-01-29T01:07:53.503Z,37.38
2023-01-29T01:10:28.032Z,40.28
2023-01-29T01:12:56.669Z,40.53
2023-01-29T01:15:26.789Z,32.97
2023-01-29T01:17:57.496Z,34.22
2023-01-29T01:20:26.475Z,36.15
2023-01-29T01:22:55.094Z,33.95
2023-01-29T01:25:23.989Z,38.28
2023-01-29T01:27:56.048Z,33.38
2023-01-29T01:30:24.365Z,32.58
2023-01-29T01:32:52.296Z,35.70
2023-01-29T01:35:19.733Z,32.10
2023-01-29T01:37:47.219Z,32.80
2023-01-29T01:40:21.365Z,33.42
2023-01-29T01:42:55.465Z,34.05
2023-01-29T01:45:36.575Z,29.48
2023-01-29T01:48:17.220Z,32.67
2023-01-29T01:51:03.452Z,35.05
2023-01-29T01:53:41.002Z,32.60
2023-01-29T01:56:12.899Z,32.85
2023-01-29T02:01:12.565Z,39.92
2023-01-29T02:04:05.274Z,31.33
2023-01-29T02:06:52.576Z,29.27
2023-01-29T02:09:38.831Z,31.88
2023-01-29T02:12:17.201Z,32.33
2023-01-29T02:14:45.411Z,32.20
2023-01-29T02:17:15.795Z,32.60
2023-01-29T02:20:01.386Z,34.22
2023-01-29T02:22:54.043Z,33.42
2023-01-29T02:25:43.268Z,29.88
2023-01-29T02:28:15.363Z,32.15
2023-01-29T02:30:55.445Z,28.83
2023-01-29T02:33:41.003Z,33.47
2023-01-29T02:36:18.635Z,35.78
2023-01-29T02:38:59.610Z,33.78
2023-01-29T02:41:43.555Z,29.02
2023-01-29T02:44:44.807Z,34.28
2023-01-29T02:47:25.083Z,30.88
2023-01-29T02:50:06.538Z,31.10
2023-01-29T02:52:50.885Z,30.30
2023-01-29T02:55:24.230Z,33.92
2023-01-29T02:57:55.863Z,29.20
2023-01-29T03:00:30.762Z,34.80
2023-01-29T03:03:14.922Z,30.20
2023-01-29T03:05:51.101Z,33.50
2023-01-29T03:08:37.290Z,33.20
2023-01-29T03:11:07.139Z,30.13
2023-01-29T03:14:04.560Z,30.95
2023-01-29T03:16:39.454Z,31.00
2023-01-29T03:19:26.234Z,30.77
2023-01-29T03:21:59.609Z,32.92
2023-01-29T03:25:10.801Z,33.88
2023-01-29T03:28:15.899Z,29.65
2023-01-29T03:31:10.847Z,28.45
2023-01-29T03:34:24.466Z,30.33
2023-01-29T03:37:00.136Z,35.53
2023-01-29T03:39:29.457Z,30.65
2023-01-29T03:42:17.689Z,22.33
2023-01-29T03:44:53.754Z,31.88
2023-01-29T03:47:40.622Z,30.33
2023-01-29T03:50:08.219Z,31.60
2023-01-29T03:53:01.745Z,33.58
2023-01-29T03:55:47.085Z,32.17
2023-01-29T03:58:20.356Z,28.63
2023-01-29T04:01:20.656Z,26.55
2023-01-29T04:04:06.378Z,31.50
2023-01-29T04:06:38.067Z,29.25
2023-01-29T04:09:22.301Z,26.83
2023-01-29T04:12:01.398Z,33.97
2023-01-29T04:14:31.349Z,29.92
2023-01-29T04:17:03.564Z,22.27
2023-01-29T04:19:44.554Z,26.50
2023-01-29T04:22:23.203Z,26.30
2023-01-29T04:24:51.678Z,30.50
2023-01-29T04:27:41.346Z,25.77
2023-01-29T04:30:33.754Z,23.10
2023-01-29T04:33:23.510Z,26.55
2023-01-29T04:36:13.979Z,26.00
2023-01-29T04:39:17.511Z,25.95
2023-01-29T04:42:20.041Z,26.98
2023-01-29T04:47:42.458Z,22.42
2023-01-29T04:50:21.694Z,30.60
2023-01-29T04:53:03.022Z,27.02
2023-01-29T04:55:51.142Z,30.10
2023-01-29T04:58:39.732Z,29.15
2023-01-29T05:01:13.191Z,30.42
2023-01-29T05:03:45.470Z,29.40
2023-01-29T05:06:14.170Z,30.85
2023-01-29T05:08:42.357Z,27.75
2023-01-29T05:11:11.122Z,27.08
2023-01-29T05:13:41.596Z,31.35
2023-01-29T05:16:17.114Z,26.35
2023-01-29T05:18:44.656Z,28.92
2023-01-29T05:21:12.262Z,30.70
2023-01-29T05:23:39.794Z,36.22
2023-01-29T05:26:07.233Z,30.98
2023-01-29T05:28:34.748Z,32.25
2023-01-29T05:31:02.658Z,27.50
2023-01-29T05:33:31.506Z,30.60
2023-01-29T05:35:59.827Z,24.48
2023-01-29T05:38:27.370Z,27.02
2023-01-29T05:40:54.898Z,27.17
2023-01-29T05:43:24.897Z,27.10
2023-01-29T05:45:56.840Z,26.50
2023-01-29T05:50:52.504Z,26.23
2023-01-29T05:53:20.204Z,26.23
2023-01-29T05:55:48.498Z,29.00
2023-01-29T05:58:15.991Z,26.40
2023-01-29T06:00:43.469Z,30.27
2023-01-29T06:03:11.045Z,25.35
2023-01-29T06:05:39.721Z,27.23
2023-01-29T06:08:08.393Z,29.88
2023-01-29T06:10:36.097Z,29.48
2023-01-29T06:13:03.708Z,24.98
2023-01-29T06:15:31.172Z,29.80
2023-01-29T06:17:58.630Z,26.95
2023-01-29T06:20:26.756Z,24.70
2023-01-29T06:22:54.157Z,29.50
2023-01-29T06:25:21.622Z,26.42
2023-01-29T06:27:51.380Z,30.50
2023-01-29T06:30:19.074Z,25.77
2023-01-29T06:32:46.770Z,25.17
2023-01-29T06:35:14.520Z,24.17
2023-01-29T06:37:42.043Z,25.92
2023-01-29T06:40:10.194Z,25.30
2023-01-29T06:42:37.697Z,27.15
2023-01-29T06:45:05.486Z,32.08
2023-01-29T06:47:32.912Z,26.50
2023-01-29T06:50:00.998Z,25.63
2023-01-29T06:52:29.140Z,29.02
2023-01-29T06:54:56.976Z,28.45
2023-01-29T06:57:24.607Z,26.45
2023-01-29T06:59:52.315Z,27.58
2023-01-29T07:02:19.820Z,30.20
2023-01-29T07:04:47.354Z,29.08
2023-01-29T07:07:14.794Z,27.00
2023-01-29T07:09:43.051Z,28.83
2023-01-29T07:12:11.279Z,23.48
2023-01-29T07:14:38.693Z,25.35
2023-01-29T07:17:06.237Z,34.45
2023-01-29T07:19:33.683Z,31.02
2023-01-29T07:22:04.030Z,30.02
2023-01-29T07:24:31.505Z,28.60
2023-01-29T07:26:59.027Z,32.00
2023-01-29T07:29:26.651Z,29.67
2023-01-29T07:31:54.265Z,28.65
2023-01-29T07:34:21.908Z,28.67
2023-01-29T07:36:49.467Z,30.17
2023-01-29T07:39:16.943Z,41.10
2023-01-29T07:41:44.360Z,36.30
2023-01-29T07:44:17.013Z,35.55
2023-01-29T07:46:44.577Z,32.55
2023-01-29T07:49:12.095Z,34.42
2023-01-29T07:51:39.599Z,35.80
2023-01-29T07:54:07.157Z,30.52
2023-01-29T07:56:34.683Z,29.27
2023-01-29T07:59:02.202Z,34.75
2023-01-29T08:01:29.761Z,35.45
2023-01-29T08:03:57.322Z,34.67
2023-01-29T08:06:24.833Z,33.20
2023-01-29T08:08:53.054Z,34.20
2023-01-29T08:11:20.609Z,31.73
2023-01-29T08:13:48.052Z,31.27
2023-01-29T08:16:15.552Z,35.95
2023-01-29T08:18:46.371Z,36.15
2023-01-29T08:21:14.244Z,38.20
2023-01-29T08:23:41.710Z,33.70
2023-01-29T08:26:09.148Z,38.45
2023-01-29T08:28:38.891Z,40.67
2023-01-29T08:31:17.076Z,34.03
2023-01-29T08:33:44.648Z,38.15
2023-01-29T08:36:12.725Z,37.15
2023-01-29T08:38:40.342Z,30.13
2023-01-29T08:41:08.158Z,32.38
2023-01-29T08:43:37.193Z,34.30
2023-01-29T08:46:05.593Z,35.83
2023-01-29T08:48:33.661Z,35.35
2023-01-29T08:51:02.591Z,36.55
2023-01-29T08:53:30.739Z,34.95
2023-01-29T08:55:58.283Z,33.03
2023-01-29T08:58:25.770Z,31.42
2023-01-29T09:00:53.231Z,32.00
2023-01-29T09:03:20.717Z,35.53
2023-01-29T09:05:48.780Z,33.35
2023-01-29T09:08:16.271Z,32.40
2023-01-29T09:10:43.643Z,30.83
2023-01-29T09:13:11.255Z,30.70
2023-01-29T09:15:38.688Z,28.52
2023-01-29T09:18:06.510Z,31.02
2023-01-29T09:20:34.159Z,31.40
2023-01-29T09:23:09.878Z,32.33
2023-01-29T09:25:37.911Z,30.15
2023-01-29T09:28:06.380Z,33.42
2023-01-29T09:30:34.815Z,28.05
2023-01-29T09:33:02.338Z,31.52
2023-01-29T09:35:29.955Z,30.95
2023-01-29T09:37:57.593Z,29.70
2023-01-29T09:40:29.176Z,31.60
2023-01-29T09:43:04.410Z,29.30
2023-01-29T09:45:32.440Z,27.85
2023-01-29T09:48:03.485Z,29.65
2023-01-29T09:50:49.187Z,26.70
2023-01-29T09:53:50.072Z,31.45
2023-01-29T09:56:21.941Z,25.20
2023-01-29T09:58:49.426Z,21.85
2023-01-29T10:01:37.879Z,21.35
2023-01-29T10:04:28.718Z,25.67
2023-01-29T10:07:05.073Z,24.83
2023-01-29T10:10:09.895Z,25.02
2023-01-29T10:12:43.315Z,26.67
2023-01-29T10:15:29.044Z,27.23
2023-01-29T10:18:28.970Z,29.98
2023-01-29T10:21:02.345Z,27.75
2023-01-29T10:23:35.049Z,26.23
2023-01-29T10:26:02.619Z,24.27
2023-01-29T10:28:46.064Z,26.70
2023-01-29T10:31:32.824Z,26.42
2023-01-29T10:34:11.172Z,27.48
2023-01-29T10:36:49.074Z,24.80
2023-01-29T10:39:21.921Z,25.88
2023-01-29T10:42:07.303Z,24.45
2023-01-29T10:44:53.377Z,26.17
2023-01-29T10:47:20.823Z,20.30
2023-01-29T10:50:17.078Z,21.25
2023-01-29T10:52:58.149Z,19.27
2023-01-29T10:55:51.052Z,22.30
2023-01-29T10:58:27.096Z,26.08
2023-01-29T11:00:54.621Z,22.42
2023-01-29T11:03:31.065Z,19.02
2023-01-29T11:06:23.774Z,21.95
2023-01-29T11:12:16.585Z,22.60
2023-01-29T11:15:06.272Z,20.55
2023-01-29T11:17:33.811Z,24.55
2023-01-29T11:20:01.300Z,22.58
2023-01-29T11:22:30.417Z,26.58
2023-01-29T11:25:32.671Z,26.23
2023-01-29T11:28:01.981Z,20.65
2023-01-29T11:30:34.125Z,20.27
2023-01-29T11:35:37.030Z,21.02
2023-01-29T11:38:18.526Z,18.27
2023-01-29T11:40:46.659Z,20.23
2023-01-29T11:43:23.784Z,22.40
2023-01-29T11:46:01.756Z,26.38
2023-01-29T11:48:42.055Z,20.00
2023-01-29T11:51:12.844Z,19.38
2023-01-29T11:53:44.292Z,18.33
2023-01-29T11:56:35.202Z,18.17
2023-01-29T11:59:06.335Z,21.20
2023-01-29T12:01:40.343Z,19.25
2023-01-29T12:04:24.326Z,21.05
2023-01-29T12:06:54.117Z,19.23
2023-01-29T12:09:28.325Z,24.33
2023-01-29T12:11:56.043Z,21.02
2023-01-29T12:14:34.429Z,24.05
2023-01-29T12:17:08.037Z,21.13
2023-01-29T12:19:44.340Z,20.88
2023-01-29T12:22:40.244Z,22.55
2023-01-29T12:25:24.349Z,21.30
2023-01-29T12:28:02.336Z,22.33
2023-01-29T12:30:48.920Z,21.02
2023-01-29T12:33:28.439Z,20.90
2023-01-29T12:36:10.888Z,26.55
2023-01-29T12:38:38.602Z,21.85
2023-01-29T12:41:22.045Z,23.40
2023-01-29T12:43:56.107Z,21.52
2023-01-29T12:46:34.700Z,22.08
2023-01-29T12:49:04.856Z,21.60
2023-01-29T12:51:43.234Z,19.48
2023-01-29T12:54:18.095Z,25.48
2023-01-29T12:56:49.363Z,25.42
2023-01-29T12:59:38.135Z,19.33
2023-01-29T13:02:30.869Z,23.60
2023-01-29T13:05:24.270Z,22.17
2023-01-29T13:08:03.528Z,21.95
2023-01-29T13:10:37.943Z,23.13
2023-01-29T13:13:38.948Z,19.92
2023-01-29T13:16:11.293Z,18.05
2023-01-29T13:19:05.211Z,21.17
2023-01-29T13:21:39.616Z,18.30
2023-01-29T13:24:17.005Z,26.30
2023-01-29T13:26:49.125Z,22.15
2023-01-29T13:31:56.668Z,21.73
2023-01-29T13:34:31.753Z,24.05
2023-01-29T13:37:03.078Z,19.73
2023-01-29T13:39:38.009Z,18.00
2023-01-29T13:42:16.361Z,22.20
2023-01-29T13:44:49.043Z,23.38
2023-01-29T13:47:34.592Z,24.90
2023-01-29T13:50:07.852Z,25.45
2023-01-29T13:52:53.200Z,21.77
2023-01-29T13:55:34.923Z,23.77
2023-01-29T13:58:15.979Z,25.80
2023-01-29T14:00:43.442Z,21.42
2023-01-29T14:03:13.530Z,21.48
2023-01-29T14:05:41.524Z,21.42
2023-01-29T14:08:08.969Z,20.88
2023-01-29T14:10:37.817Z,20.08
2023-01-29T14:13:21.293Z,19.50
2023-01-29T14:15:57.823Z,20.30
2023-01-29T14:18:30.415Z,25.10
2023-01-29T14:21:04.144Z,22.75
2023-01-29T14:23:44.715Z,19.55
2023-01-29T14:26:26.354Z,27.90
2023-01-29T14:29:32.489Z,25.27
2023-01-29T14:32:19.624Z,19.05
2023-01-29T14:34:55.687Z,22.58
2023-01-29T14:37:29.384Z,24.70
2023-01-29T14:39:59.973Z,24.25
2023-01-29T14:42:46.994Z,23.38
2023-01-29T14:45:44.748Z,28.08
2023-01-29T14:48:12.309Z,22.80
2023-01-29T14:50:49.478Z,23.08
2023-01-29T14:54:03.946Z,24.75
2023-01-29T14:56:46.079Z,23.67
2023-01-29T14:59:16.627Z,25.88
2023-01-29T15:01:55.143Z,25.42
2023-01-29T15:04:36.925Z,24.60
2023-01-29T15:07:11.729Z,24.10
2023-01-29T15:10:21.590Z,25.52
2023-01-29T15:13:04.927Z,25.73
2023-01-29T15:18:09.781Z,24.92
2023-01-29T15:20:39.726Z,27.48
2023-01-29T15:23:31.112Z,26.42
2023-01-29T15:26:04.177Z,27.25
2023-01-29T15:28:34.791Z,32.20
2023-01-29T15:31:05.932Z,26.95
2023-01-29T15:33:38.634Z,29.40
2023-01-29T15:36:08.025Z,26.30
2023-01-29T15:38:36.606Z,30.05
2023-01-29T15:41:19.733Z,29.27
2023-01-29T15:43:57.028Z,30.33
2023-01-29T15:46:37.711Z,28.05
2023-01-29T15:49:15.971Z,28.73
2023-01-29T15:51:43.995Z,28.85
2023-01-29T15:54:15.996Z,27.98
2023-01-29T15:56:54.204Z,28.83
2023-01-29T15:59:29.180Z,28.38
2023-01-29T16:01:56.884Z,27.60
2023-01-29T16:04:28.939Z,27.63
2023-01-29T16:06:58.174Z,28.50
2023-01-29T16:09:27.352Z,27.55
2023-01-29T16:11:58.818Z,25.65
2023-01-29T16:14:28.451Z,27.58
2023-01-29T16:16:55.984Z,26.35
2023-01-29T16:19:26.402Z,30.73
2023-01-29T16:21:59.993Z,29.30
2023-01-29T16:24:28.918Z,30.65
2023-01-29T16:27:11.105Z,32.60
2023-01-29T16:32:07.035Z,28.73
2023-01-29T16:34:44.296Z,25.52
2023-01-29T16:37:30.873Z,33.08
2023-01-29T16:39:59.025Z,30.05
2023-01-29T16:42:31.380Z,31.45
2023-01-29T16:45:05.188Z,35.75
2023-01-29T16:47:43.784Z,30.73
2023-01-29T16:50:54.720Z,33.33
2023-01-29T16:53:27.398Z,31.15
2023-01-29T16:56:07.176Z,33.95
2023-01-29T16:58:35.570Z,33.70
2023-01-29T17:01:10.567Z,30.83
2023-01-29T17:03:39.094Z,33.42
2023-01-29T17:06:11.559Z,41.72
2023-01-29T17:08:42.437Z,37.97
2023-01-29T17:11:12.404Z,35.60
2023-01-29T17:13:45.566Z,33.70
2023-01-29T17:16:21.925Z,42.40
2023-01-29T17:18:49.511Z,36.83
2023-01-29T17:21:17.030Z,41.63
2023-01-29T17:23:44.457Z,37.38
2023-01-29T17:26:14.084Z,33.85
2023-01-29T17:28:42.798Z,36.95
2023-01-29T17:31:10.458Z,37.50
2023-01-29T17:33:41.909Z,37.95
2023-01-29T17:36:14.918Z,45.42
2023-01-29T17:38:42.647Z,38.08
2023-01-29T17:41:19.643Z,36.50
2023-01-29T17:43:47.188Z,40.10
2023-01-29T17:46:16.933Z,40.92
2023-01-29T17:48:45.338Z,35.63
2023-01-29T17:51:17.343Z,37.15
2023-01-29T17:56:21.408Z,41.20
2023-01-29T17:58:48.822Z,41.03
2023-01-29T18:01:16.282Z,43.25
2023-01-29T18:03:43.807Z,43.15
2023-01-29T18:06:19.200Z,41.42
2023-01-29T18:08:46.705Z,41.08
2023-01-29T18:11:14.287Z,40.60
2023-01-29T18:13:42.032Z,44.40
2023-01-29T18:16:09.603Z,55.28
2023-01-29T18:18:37.093Z,55.95
2023-01-29T18:21:04.770Z,55.10
2023-01-29T18:23:32.463Z,46.05
2023-01-29T18:25:59.998Z,48.17
2023-01-29T18:28:27.448Z,50.17
2023-01-29T18:30:55.023Z,46.17
2023-01-29T18:33:24.209Z,47.17
2023-01-29T18:35:51.796Z,46.20
2023-01-29T18:38:19.273Z,47.20
2023-01-29T18:40:46.842Z,50.72
2023-01-29T18:43:15.131Z,46.08
2023-01-29T18:45:42.822Z,50.63
2023-01-29T18:48:10.337Z,46.33
2023-01-29T18:50:37.800Z,42.70
2023-01-29T18:53:05.493Z,43.35
2023-01-29T18:55:33.916Z,49.55
2023-01-29T18:58:33.424Z,49.53
2023-01-29T19:00:48.984Z,52.85
2023-01-29T19:03:16.541Z,46.45
2023-01-29T19:05:44.229Z,50.47
2023-01-29T19:08:11.697Z,52.20
2023-01-29T19:10:40.620Z,51.35
2023-01-29T19:13:08.495Z,51.40
2023-01-29T19:15:36.471Z,51.22
2023-01-29T19:18:04.499Z,48.78
2023-01-29T19:20:31.944Z,48.05
2023-01-29T19:22:59.601Z,53.25
2023-01-29T19:25:27.104Z,53.97
2023-01-29T19:27:54.544Z,47.38
2023-01-29T19:30:22.172Z,50.05
2023-01-29T19:32:49.711Z,43.90
2023-01-29T19:35:17.505Z,47.45
2023-01-29T19:37:45.409Z,43.95
2023-01-29T19:40:12.976Z,49.40
2023-01-29T19:42:41.033Z,50.30
2023-01-29T19:45:09.031Z,43.75
2023-01-29T19:47:40.940Z,51.25
2023-01-29T19:52:52.273Z,49.22
2023-01-29T19:55:21.273Z,48.85
2023-01-29T19:57:49.131Z,49.03
2023-01-29T20:00:18.235Z,48.45
2023-01-29T20:02:45.868Z,43.97
2023-01-29T20:05:17.299Z,48.35
2023-01-29T20:07:45.024Z,45.80
2023-01-29T20:10:17.621Z,45.95
2023-01-29T20:12:46.146Z,46.78
2023-01-29T20:15:14.561Z,48.08
2023-01-29T20:17:42.192Z,55.15
2023-01-29T20:20:10.349Z,48.47
2023-01-29T20:22:37.800Z,49.85
2023-01-29T20:25:06.003Z,46.70
2023-01-29T20:27:33.450Z,51.70
2023-01-29T20:30:00.878Z,45.83
2023-01-29T20:32:28.436Z,51.10
2023-01-29T20:34:55.957Z,48.33
2023-01-29T20:37:23.378Z,47.35
2023-01-29T20:39:50.784Z,54.90
2023-01-29T20:42:18.174Z,45.10
2023-01-29T20:44:45.803Z,47.35
2023-01-29T20:47:13.332Z,57.25
2023-01-29T20:49:40.838Z,56.42
2023-01-29T20:52:08.702Z,46.17
2023-01-29T20:54:36.251Z,51.13
2023-01-29T20:57:03.921Z,46.17
2023-01-29T20:59:31.516Z,51.80
2023-01-29T21:01:59.028Z,50.97
2023-01-29T21:04:27.386Z,57.70
2023-01-29T21:06:55.046Z,58.92
2023-01-29T21:09:22.458Z,50.20
2023-01-29T21:11:49.957Z,54.53
2023-01-29T21:14:17.445Z,53.08
2023-01-29T21:16:44.871Z,51.25
2023-01-29T21:19:14.916Z,56.30
2023-01-29T21:21:42.470Z,55.72
2023-01-29T21:24:11.727Z,55.15
2023-01-29T21:26:39.412Z,57.53
2023-01-29T21:29:07.081Z,54.65
2023-01-29T21:31:34.597Z,56.70
2023-01-29T21:34:03.370Z,60.92
2023-01-29T21:36:31.599Z,50.85
2023-01-29T21:38:59.164Z,54.55
2023-01-29T21:41:45.069Z,49.65
2023-01-29T21:44:12.820Z,54.95
2023-01-29T21:46:40.305Z,61.65
2023-01-29T21:49:08.396Z,62.88
2023-01-29T21:51:35.867Z,64.20
2023-01-29T21:54:03.560Z,55.55
2023-01-29T21:56:31.085Z,62.20
2023-01-29T21:59:00.750Z,56.40
2023-01-29T22:01:37.617Z,61.42
2023-01-29T22:04:08.576Z,69.40
2023-01-29T22:06:36.140Z,63.03
2023-01-29T22:09:03.738Z,61.22
2023-01-29T22:11:32.430Z,56.13
2023-01-29T22:14:00.124Z,50.17
2023-01-29T22:16:29.831Z,61.30
2023-01-29T22:18:57.373Z,61.17
2023-01-29T22:21:25.000Z,66.07
2023-01-29T22:23:52.624Z,55.63
2023-01-29T22:26:20.188Z,67.55
2023-01-29T22:28:47.697Z,63.63
2023-01-29T22:31:15.279Z,59.03
2023-01-29T22:33:43.432Z,66.28
2023-01-29T22:36:10.990Z,61.08
2023-01-29T22:38:38.452Z,63.78
2023-01-29T22:41:05.960Z,57.88
2023-01-29T22:43:33.459Z,68.07
2023-01-29T22:46:00.974Z,68.65
2023-01-29T22:48:30.609Z,64.82
2023-01-29T22:51:11.882Z,68.28
2023-01-29T22:53:40.230Z,64.47
2023-01-29T22:56:09.027Z,60.78
2023-01-29T22:58:36.612Z,63.97
2023-01-29T23:01:04.522Z,67.05
2023-01-29T23:03:32.052Z,60.58
2023-01-29T23:05:59.628Z,65.03
2023-01-29T23:08:27.832Z,64.28
2023-01-29T23:11:13.731Z,62.97
2023-01-29T23:13:44.859Z,66.45
2023-01-29T23:16:13.762Z,57.73
2023-01-29T23:18:41.599Z,66.43
2023-01-29T23:21:09.415Z,64.82
2023-01-29T23:23:37.682Z,66.88
2023-01-29T23:26:25.292Z,65.20
2023-01-29T23:28:52.874Z,65.38
2023-01-29T23:31:20.433Z,55.83
2023-01-29T23:33:48.654Z,62.47
2023-01-29T23:36:16.524Z,61.97
2023-01-29T23:38:43.938Z,55.22
2023-01-29T23:41:11.320Z,64.55
2023-01-29T23:43:38.946Z,63.72
2023-01-29T23:46:06.524Z,60.00
2023-01-29T23:48:33.948Z,57.15
2023-01-29T23:51:01.775Z,59.65
2023-01-29T23:53:29.271Z,60.80
2023-01-29T23:56:02.511Z,60.72
2023-01-29T23:58:31.367Z,58.50
